AFL1239 UWKD-URML
Flight info
| Callsign | AFL1239 |
|---|---|
| Flight time | 2h 10m |
| Altitude | 36000 |
| Route | SONUM T789 DAFOS P135 UROBO R807 IDORI A927 SL A964 NOKLI N72 GORNU B945 AMKOL |
| Aircraft | A320/M-SDE3FGHIRWY/C |
Departure
| Time | 2026-04-29 15:29 |
|---|---|
| Airport | Kazan International Airport (UWKD) |
Arrival
| Time | 2026-04-29 17:40 |
|---|---|
| Airport | Makhachkala Uytash International Airport (URML) |
| Time | Latitude | Longitude | Altitude | Speed | Heading |
|---|---|---|---|---|---|
| 2026-04-29 15:06 | 55.60711 | 49.29598 | 416 ft | 0 kts | 34° |
| 2026-04-29 15:19 | 55.60733 | 49.29635 | 408 ft | 6 kts | 66° |
| 2026-04-29 15:19 | 55.60728 | 49.29694 | 414 ft | 4 kts | 118° |
| 2026-04-29 15:20 | 55.60714 | 49.29734 | 409 ft | 3 kts | 123° |
| 2026-04-29 15:20 | 55.60704 | 49.29761 | 414 ft | 2 kts | 123° |
| 2026-04-29 15:20 | 55.60685 | 49.29811 | 413 ft | 11 kts | 123° |
| 2026-04-29 15:20 | 55.60628 | 49.29960 | 407 ft | 14 kts | 126° |
| 2026-04-29 15:21 | 55.60573 | 49.30084 | 412 ft | 12 kts | 141° |
| 2026-04-29 15:21 | 55.60508 | 49.30065 | 405 ft | 8 kts | 213° |
| 2026-04-29 15:21 | 55.60462 | 49.30009 | 416 ft | 7 kts | 214° |
| 2026-04-29 15:21 | 55.60421 | 49.29959 | 416 ft | 7 kts | 214° |
| 2026-04-29 15:22 | 55.60381 | 49.29916 | 410 ft | 6 kts | 205° |
| 2026-04-29 15:22 | 55.60344 | 49.29889 | 413 ft | 6 kts | 194° |
| 2026-04-29 15:22 | 55.60279 | 49.29883 | 416 ft | 11 kts | 175° |
| 2026-04-29 15:22 | 55.60205 | 49.29933 | 414 ft | 11 kts | 153° |
| 2026-04-29 15:23 | 55.60138 | 49.29989 | 412 ft | 10 kts | 155° |
| 2026-04-29 15:23 | 55.60081 | 49.30036 | 413 ft | 8 kts | 155° |
| 2026-04-29 15:23 | 55.60034 | 49.30077 | 410 ft | 7 kts | 154° |
| 2026-04-29 15:23 | 55.59995 | 49.30109 | 412 ft | 6 kts | 155° |
| 2026-04-29 15:24 | 55.59964 | 49.30122 | 412 ft | 3 kts | 174° |
| 2026-04-29 15:24 | 55.59950 | 49.30124 | 413 ft | 3 kts | 174° |
| 2026-04-29 15:24 | 55.59918 | 49.30115 | 412 ft | 4 kts | 204° |
| 2026-04-29 15:24 | 55.59914 | 49.30112 | 413 ft | 0 kts | 204° |
| 2026-04-29 15:26 | 55.59869 | 49.30062 | 416 ft | 9 kts | 215° |
| 2026-04-29 15:27 | 55.59820 | 49.29998 | 417 ft | 6 kts | 217° |
| 2026-04-29 15:27 | 55.59815 | 49.29961 | 413 ft | 1 kts | 282° |
| 2026-04-29 15:27 | 55.59822 | 49.29944 | 418 ft | 6 kts | 308° |
| 2026-04-29 15:27 | 55.59825 | 49.29938 | 409 ft | 0 kts | 308° |
| 2026-04-29 15:28 | 55.59938 | 49.29641 | 413 ft | 64 kts | 304° |
| 2026-04-29 15:28 | 55.60313 | 49.28672 | 418 ft | 124 kts | 303° |
| 2026-04-29 15:29 | 55.60900 | 49.27173 | 434 ft | 168 kts | 303° |
| 2026-04-29 15:29 | 55.62212 | 49.23977 | 2001 ft | 155 kts | 300° |
| 2026-04-29 15:30 | 55.63340 | 49.20890 | 3321 ft | 148 kts | 277° |
| 2026-04-29 15:30 | 55.63372 | 49.19709 | 3690 ft | 145 kts | 259° |
| 2026-04-29 15:30 | 55.62604 | 49.17750 | 4225 ft | 165 kts | 209° |
| 2026-04-29 15:30 | 55.61516 | 49.16922 | 4604 ft | 180 kts | 209° |
| 2026-04-29 15:31 | 55.60341 | 49.15910 | 4967 ft | 196 kts | 209° |
| 2026-04-29 15:31 | 55.58959 | 49.15038 | 5180 ft | 226 kts | 201° |
| 2026-04-29 15:31 | 55.57376 | 49.14211 | 5634 ft | 246 kts | 200° |
| 2026-04-29 15:31 | 55.55703 | 49.13377 | 6433 ft | 253 kts | 199° |
| 2026-04-29 15:32 | 55.54574 | 49.12823 | 7000 ft | 256 kts | 199° |
| 2026-04-29 15:32 | 55.52849 | 49.11974 | 7832 ft | 259 kts | 199° |
| 2026-04-29 15:32 | 55.51099 | 49.11108 | 8689 ft | 262 kts | 199° |
| 2026-04-29 15:32 | 55.49332 | 49.10229 | 9548 ft | 266 kts | 199° |
| 2026-04-29 15:33 | 55.47536 | 49.09331 | 10339 ft | 271 kts | 199° |
| 2026-04-29 15:33 | 55.45647 | 49.08380 | 10636 ft | 294 kts | 199° |
| 2026-04-29 15:33 | 55.43605 | 49.07346 | 10838 ft | 317 kts | 199° |
| 2026-04-29 15:33 | 55.41403 | 49.06238 | 11010 ft | 339 kts | 199° |
| 2026-04-29 15:34 | 55.39095 | 49.05088 | 11528 ft | 349 kts | 199° |
| 2026-04-29 15:34 | 55.36742 | 49.03920 | 12204 ft | 353 kts | 199° |
| 2026-04-29 15:34 | 55.34366 | 49.02739 | 12893 ft | 357 kts | 199° |
| 2026-04-29 15:34 | 55.31959 | 49.01546 | 13590 ft | 361 kts | 199° |
| 2026-04-29 15:35 | 55.29530 | 49.00344 | 14225 ft | 364 kts | 199° |
| 2026-04-29 15:35 | 55.27082 | 48.99133 | 14863 ft | 366 kts | 199° |
| 2026-04-29 15:35 | 55.24626 | 48.97920 | 15546 ft | 367 kts | 199° |
| 2026-04-29 15:35 | 55.22165 | 48.96708 | 16215 ft | 368 kts | 199° |
| 2026-04-29 15:36 | 55.19699 | 48.95493 | 16875 ft | 369 kts | 200° |
| 2026-04-29 15:36 | 55.17227 | 48.94275 | 17518 ft | 369 kts | 200° |
| 2026-04-29 15:36 | 55.14750 | 48.93053 | 18163 ft | 370 kts | 200° |
| 2026-04-29 15:36 | 55.12268 | 48.91828 | 18721 ft | 371 kts | 200° |
| 2026-04-29 15:37 | 55.09778 | 48.90597 | 19233 ft | 373 kts | 200° |
| 2026-04-29 15:37 | 55.07277 | 48.89362 | 19739 ft | 374 kts | 201° |
| 2026-04-29 15:37 | 55.04765 | 48.88122 | 20018 ft | 376 kts | 201° |
| 2026-04-29 15:37 | 55.02251 | 48.86889 | 20070 ft | 375 kts | 201° |
| 2026-04-29 15:38 | 54.99736 | 48.85660 | 20085 ft | 375 kts | 201° |
| 2026-04-29 15:38 | 54.97254 | 48.84452 | 20076 ft | 375 kts | 201° |
| 2026-04-29 15:38 | 54.94709 | 48.83218 | 20094 ft | 375 kts | 201° |
| 2026-04-29 15:38 | 54.92213 | 48.82008 | 20412 ft | 379 kts | 201° |
| 2026-04-29 15:39 | 54.89670 | 48.80772 | 20928 ft | 380 kts | 201° |
| 2026-04-29 15:39 | 54.87120 | 48.79526 | 21404 ft | 382 kts | 201° |
| 2026-04-29 15:39 | 54.84553 | 48.78269 | 21863 ft | 384 kts | 202° |
| 2026-04-29 15:39 | 54.82079 | 48.76606 | 22280 ft | 380 kts | 211° |
| 2026-04-29 15:40 | 54.79769 | 48.74380 | 22719 ft | 380 kts | 214° |
| 2026-04-29 15:40 | 54.77464 | 48.72100 | 23156 ft | 382 kts | 214° |
| 2026-04-29 15:40 | 54.75146 | 48.69814 | 23581 ft | 384 kts | 213° |
| 2026-04-29 15:40 | 54.72817 | 48.67529 | 23936 ft | 387 kts | 213° |
| 2026-04-29 15:41 | 54.70467 | 48.65232 | 24280 ft | 389 kts | 213° |
| 2026-04-29 15:41 | 54.68104 | 48.62924 | 24623 ft | 391 kts | 213° |
| 2026-04-29 15:41 | 54.65730 | 48.60614 | 24968 ft | 393 kts | 213° |
| 2026-04-29 15:41 | 54.63347 | 48.58297 | 25272 ft | 394 kts | 213° |
| 2026-04-29 15:42 | 54.60952 | 48.55966 | 25580 ft | 396 kts | 213° |
| 2026-04-29 15:42 | 54.58546 | 48.53626 | 25887 ft | 398 kts | 213° |
| 2026-04-29 15:42 | 54.56130 | 48.51278 | 26188 ft | 400 kts | 213° |
| 2026-04-29 15:42 | 54.53857 | 48.49068 | 26468 ft | 401 kts | 213° |
| 2026-04-29 15:43 | 54.51418 | 48.46699 | 26765 ft | 403 kts | 213° |
| 2026-04-29 15:43 | 54.48973 | 48.44331 | 27058 ft | 404 kts | 213° |
| 2026-04-29 15:43 | 54.46518 | 48.41964 | 27405 ft | 404 kts | 213° |
| 2026-04-29 15:43 | 54.44068 | 48.39610 | 27843 ft | 402 kts | 213° |
| 2026-04-29 15:44 | 54.41630 | 48.37270 | 28267 ft | 401 kts | 213° |
| 2026-04-29 15:44 | 54.36762 | 48.32590 | 28335 ft | 399 kts | 213° |
| 2026-04-29 15:44 | 54.34343 | 48.30259 | 28523 ft | 399 kts | 213° |
| 2026-04-29 15:45 | 54.31920 | 48.27929 | 28721 ft | 399 kts | 213° |
| 2026-04-29 15:45 | 54.29501 | 48.25612 | 29043 ft | 398 kts | 213° |
| 2026-04-29 15:45 | 54.27085 | 48.23302 | 29392 ft | 397 kts | 213° |
| 2026-04-29 15:45 | 54.24587 | 48.21231 | 29769 ft | 399 kts | 209° |
| 2026-04-29 15:46 | 54.22058 | 48.19302 | 30184 ft | 398 kts | 209° |
| 2026-04-29 15:46 | 54.19524 | 48.17371 | 30495 ft | 398 kts | 209° |
| 2026-04-29 15:46 | 54.16989 | 48.15441 | 30785 ft | 399 kts | 209° |
| 2026-04-29 15:46 | 54.14455 | 48.13509 | 31060 ft | 399 kts | 209° |
| 2026-04-29 15:47 | 54.11949 | 48.11600 | 31329 ft | 400 kts | 208° |
| 2026-04-29 15:47 | 54.09404 | 48.09665 | 31611 ft | 401 kts | 208° |
| 2026-04-29 15:47 | 54.06856 | 48.07729 | 31893 ft | 401 kts | 208° |
| 2026-04-29 15:47 | 54.04304 | 48.05794 | 32190 ft | 402 kts | 208° |
| 2026-04-29 15:48 | 54.01751 | 48.03863 | 32474 ft | 402 kts | 208° |
| 2026-04-29 15:48 | 53.99192 | 48.01928 | 32762 ft | 403 kts | 208° |
| 2026-04-29 15:48 | 53.96630 | 47.99992 | 33052 ft | 403 kts | 208° |
| 2026-04-29 15:48 | 53.94065 | 47.98057 | 33340 ft | 403 kts | 208° |
| 2026-04-29 15:49 | 53.91498 | 47.96122 | 33624 ft | 404 kts | 208° |
| 2026-04-29 15:49 | 53.88927 | 47.94192 | 33911 ft | 404 kts | 208° |
| 2026-04-29 15:49 | 53.86351 | 47.92260 | 34092 ft | 405 kts | 208° |
| 2026-04-29 15:50 | 53.81072 | 47.88863 | 34122 ft | 410 kts | 198° |
| 2026-04-29 15:50 | 53.75441 | 47.86589 | 34127 ft | 410 kts | 199° |
| 2026-04-29 15:51 | 53.69935 | 47.84269 | 34126 ft | 406 kts | 204° |
| 2026-04-29 15:51 | 53.64704 | 47.80837 | 34129 ft | 403 kts | 206° |
| 2026-04-29 15:52 | 53.59530 | 47.77395 | 34128 ft | 402 kts | 206° |
| 2026-04-29 15:52 | 53.54329 | 47.73957 | 34128 ft | 401 kts | 206° |
| 2026-04-29 15:53 | 53.49136 | 47.70545 | 34136 ft | 400 kts | 206° |
| 2026-04-29 15:53 | 53.44202 | 47.66386 | 34133 ft | 396 kts | 212° |
| 2026-04-29 15:54 | 53.39352 | 47.61991 | 34134 ft | 395 kts | 212° |
| 2026-04-29 15:54 | 53.34506 | 47.57636 | 34135 ft | 395 kts | 211° |
| 2026-04-29 15:55 | 53.29662 | 47.53299 | 34137 ft | 395 kts | 211° |
| 2026-04-29 15:55 | 53.24828 | 47.48962 | 34140 ft | 394 kts | 211° |
| 2026-04-29 15:56 | 53.19998 | 47.44641 | 34137 ft | 394 kts | 211° |
| 2026-04-29 15:56 | 53.15168 | 47.40345 | 34139 ft | 393 kts | 211° |
| 2026-04-29 15:57 | 53.10335 | 47.36052 | 34143 ft | 393 kts | 211° |
| 2026-04-29 15:57 | 53.05545 | 47.31798 | 34139 ft | 393 kts | 211° |
| 2026-04-29 15:58 | 53.00720 | 47.27525 | 34264 ft | 394 kts | 211° |
| 2026-04-29 15:58 | 52.98310 | 47.25394 | 34545 ft | 393 kts | 211° |
| 2026-04-29 15:58 | 52.95892 | 47.23260 | 34789 ft | 394 kts | 211° |
| 2026-04-29 15:58 | 52.93464 | 47.21117 | 34994 ft | 395 kts | 210° |
| 2026-04-29 15:59 | 52.91034 | 47.18976 | 35205 ft | 396 kts | 210° |
| 2026-04-29 15:59 | 52.88603 | 47.16841 | 35413 ft | 397 kts | 210° |
| 2026-04-29 15:59 | 52.86160 | 47.14698 | 35612 ft | 398 kts | 210° |
| 2026-04-29 15:59 | 52.83706 | 47.12548 | 35814 ft | 399 kts | 210° |
| 2026-04-29 16:00 | 52.81253 | 47.10399 | 36007 ft | 399 kts | 210° |
| 2026-04-29 16:00 | 52.78790 | 47.08248 | 36121 ft | 402 kts | 210° |
| 2026-04-29 16:00 | 52.76306 | 47.06083 | 36146 ft | 405 kts | 210° |
| 2026-04-29 16:01 | 52.71304 | 47.01737 | 36141 ft | 407 kts | 210° |
| 2026-04-29 16:01 | 52.66295 | 46.97393 | 36145 ft | 407 kts | 210° |
| 2026-04-29 16:02 | 52.61280 | 46.93051 | 36143 ft | 408 kts | 210° |
| 2026-04-29 16:02 | 52.56251 | 46.88707 | 36141 ft | 408 kts | 210° |
| 2026-04-29 16:03 | 52.51222 | 46.84369 | 36140 ft | 408 kts | 210° |
| 2026-04-29 16:03 | 52.46231 | 46.80070 | 36137 ft | 408 kts | 210° |
| 2026-04-29 16:04 | 52.41201 | 46.75765 | 36132 ft | 408 kts | 210° |
| 2026-04-29 16:04 | 52.36160 | 46.71458 | 36137 ft | 408 kts | 210° |
| 2026-04-29 16:05 | 52.31121 | 46.67169 | 36150 ft | 408 kts | 210° |
| 2026-04-29 16:05 | 52.26087 | 46.62882 | 36139 ft | 408 kts | 210° |
| 2026-04-29 16:06 | 52.21052 | 46.58606 | 36146 ft | 408 kts | 210° |
| 2026-04-29 16:06 | 52.16015 | 46.54346 | 36135 ft | 408 kts | 210° |
| 2026-04-29 16:07 | 52.10976 | 46.50086 | 36144 ft | 408 kts | 210° |
| 2026-04-29 16:07 | 52.05926 | 46.45837 | 36142 ft | 408 kts | 210° |
| 2026-04-29 16:08 | 52.00913 | 46.41627 | 36146 ft | 408 kts | 210° |
| 2026-04-29 16:08 | 51.95867 | 46.37405 | 36147 ft | 408 kts | 210° |
| 2026-04-29 16:09 | 51.90819 | 46.33188 | 36161 ft | 408 kts | 210° |
| 2026-04-29 16:09 | 51.85773 | 46.28975 | 36156 ft | 408 kts | 210° |
| 2026-04-29 16:10 | 51.80722 | 46.24783 | 36163 ft | 408 kts | 210° |
| 2026-04-29 16:10 | 51.75674 | 46.20594 | 36159 ft | 408 kts | 210° |
| 2026-04-29 16:11 | 51.70620 | 46.16407 | 36164 ft | 408 kts | 210° |
| 2026-04-29 16:11 | 51.65569 | 46.12248 | 36161 ft | 408 kts | 209° |
| 2026-04-29 16:12 | 51.60506 | 46.08089 | 36166 ft | 408 kts | 209° |
| 2026-04-29 16:12 | 51.55450 | 46.03934 | 36161 ft | 408 kts | 209° |
| 2026-04-29 16:13 | 51.50334 | 45.99962 | 36160 ft | 409 kts | 208° |
| 2026-04-29 16:13 | 51.45180 | 45.96106 | 36158 ft | 408 kts | 207° |
| 2026-04-29 16:14 | 51.40039 | 45.92243 | 36156 ft | 408 kts | 208° |
| 2026-04-29 16:14 | 51.34909 | 45.88352 | 36155 ft | 408 kts | 208° |
| 2026-04-29 16:15 | 51.29781 | 45.84461 | 36160 ft | 408 kts | 208° |
| 2026-04-29 16:15 | 51.24659 | 45.80581 | 36154 ft | 408 kts | 208° |
| 2026-04-29 16:16 | 51.20397 | 45.77367 | 36165 ft | 407 kts | 208° |
| 2026-04-29 16:16 | 51.15277 | 45.73523 | 36166 ft | 407 kts | 208° |
| 2026-04-29 16:17 | 51.10148 | 45.69683 | 36169 ft | 407 kts | 208° |
| 2026-04-29 16:17 | 51.05024 | 45.65859 | 36165 ft | 406 kts | 208° |
| 2026-04-29 16:18 | 50.96439 | 45.62034 | 36171 ft | 411 kts | 197° |
| 2026-04-29 16:18 | 50.93649 | 45.61031 | 36170 ft | 411 kts | 197° |
| 2026-04-29 16:19 | 50.88072 | 45.59025 | 36172 ft | 411 kts | 197° |
| 2026-04-29 16:19 | 50.82502 | 45.57026 | 36169 ft | 411 kts | 197° |
| 2026-04-29 16:20 | 50.76928 | 45.55037 | 36178 ft | 411 kts | 197° |
| 2026-04-29 16:20 | 50.71388 | 45.53099 | 36173 ft | 410 kts | 197° |
| 2026-04-29 16:21 | 50.65812 | 45.51173 | 36177 ft | 410 kts | 197° |
| 2026-04-29 16:21 | 50.60234 | 45.49238 | 36173 ft | 410 kts | 197° |
| 2026-04-29 16:22 | 50.54666 | 45.47304 | 36174 ft | 410 kts | 197° |
| 2026-04-29 16:22 | 50.49091 | 45.45373 | 36171 ft | 410 kts | 197° |
| 2026-04-29 16:23 | 50.43517 | 45.43453 | 36174 ft | 410 kts | 197° |
| 2026-04-29 16:23 | 50.37946 | 45.41531 | 36173 ft | 410 kts | 197° |
| 2026-04-29 16:24 | 50.32373 | 45.39611 | 36174 ft | 410 kts | 197° |
| 2026-04-29 16:24 | 50.26808 | 45.37707 | 36174 ft | 410 kts | 197° |
| 2026-04-29 16:25 | 50.21237 | 45.35798 | 36175 ft | 409 kts | 197° |
| 2026-04-29 16:25 | 50.15678 | 45.33896 | 36176 ft | 409 kts | 197° |
| 2026-04-29 16:26 | 50.10107 | 45.32015 | 36178 ft | 409 kts | 197° |
| 2026-04-29 16:26 | 50.04534 | 45.30130 | 36176 ft | 409 kts | 197° |
| 2026-04-29 16:27 | 49.98990 | 45.28139 | 36180 ft | 408 kts | 199° |
| 2026-04-29 16:27 | 49.93544 | 45.25702 | 36175 ft | 407 kts | 201° |
| 2026-04-29 16:28 | 49.88121 | 45.23178 | 36179 ft | 407 kts | 200° |
| 2026-04-29 16:28 | 49.82714 | 45.20757 | 36170 ft | 407 kts | 200° |
| 2026-04-29 16:29 | 49.77257 | 45.18384 | 36192 ft | 407 kts | 200° |
| 2026-04-29 16:29 | 49.71765 | 45.16000 | 36179 ft | 407 kts | 200° |
| 2026-04-29 16:30 | 49.66355 | 45.13647 | 36188 ft | 407 kts | 200° |
| 2026-04-29 16:30 | 49.60904 | 45.11278 | 36143 ft | 405 kts | 199° |
| 2026-04-29 16:31 | 49.55469 | 45.08930 | 36196 ft | 406 kts | 199° |
| 2026-04-29 16:31 | 49.50028 | 45.06596 | 36202 ft | 405 kts | 199° |
| 2026-04-29 16:32 | 49.44604 | 45.04259 | 36199 ft | 405 kts | 199° |
| 2026-04-29 16:32 | 49.39191 | 45.01933 | 36195 ft | 404 kts | 199° |
| 2026-04-29 16:33 | 49.31071 | 44.98457 | 36193 ft | 404 kts | 199° |
| 2026-04-29 16:33 | 49.25662 | 44.96152 | 36192 ft | 403 kts | 199° |
| 2026-04-29 16:34 | 49.20254 | 44.93856 | 36190 ft | 403 kts | 199° |
| 2026-04-29 16:34 | 49.14848 | 44.91557 | 36188 ft | 403 kts | 199° |
| 2026-04-29 16:35 | 49.09443 | 44.89260 | 36184 ft | 403 kts | 199° |
| 2026-04-29 16:35 | 49.04030 | 44.87044 | 36183 ft | 405 kts | 193° |
| 2026-04-29 16:36 | 49.01192 | 44.86902 | 36186 ft | 414 kts | 178° |
| 2026-04-29 16:36 | 48.98336 | 44.87647 | 36181 ft | 417 kts | 175° |
| 2026-04-29 16:36 | 48.92628 | 44.89330 | 36177 ft | 418 kts | 175° |
| 2026-04-29 16:37 | 48.86919 | 44.91040 | 36174 ft | 418 kts | 175° |
| 2026-04-29 16:37 | 48.82164 | 44.92390 | 36179 ft | 417 kts | 176° |
| 2026-04-29 16:38 | 48.75461 | 44.93965 | 36179 ft | 416 kts | 177° |
| 2026-04-29 16:38 | 48.69730 | 44.95253 | 36180 ft | 416 kts | 177° |
| 2026-04-29 16:39 | 48.64039 | 44.96588 | 36180 ft | 417 kts | 176° |
| 2026-04-29 16:39 | 48.58313 | 44.97958 | 36180 ft | 416 kts | 176° |
| 2026-04-29 16:40 | 48.52584 | 44.99316 | 36177 ft | 416 kts | 176° |
| 2026-04-29 16:40 | 48.46855 | 45.00673 | 36173 ft | 416 kts | 176° |
| 2026-04-29 16:41 | 48.41129 | 45.02030 | 36170 ft | 417 kts | 176° |
| 2026-04-29 16:41 | 48.35402 | 45.03386 | 36173 ft | 417 kts | 176° |
| 2026-04-29 16:42 | 48.29676 | 45.04769 | 36172 ft | 417 kts | 176° |
| 2026-04-29 16:42 | 48.23954 | 45.06164 | 36168 ft | 417 kts | 176° |
| 2026-04-29 16:43 | 48.18261 | 45.07546 | 36170 ft | 417 kts | 176° |
| 2026-04-29 16:43 | 48.12535 | 45.08922 | 36172 ft | 417 kts | 176° |
| 2026-04-29 16:44 | 48.06809 | 45.10300 | 36163 ft | 417 kts | 176° |
| 2026-04-29 16:44 | 48.01158 | 45.12391 | 36170 ft | 427 kts | 163° |
| 2026-04-29 16:45 | 47.96668 | 45.15718 | 36167 ft | 430 kts | 160° |
| 2026-04-29 16:45 | 47.91322 | 45.19743 | 36166 ft | 430 kts | 160° |
| 2026-04-29 16:46 | 47.85975 | 45.23732 | 36167 ft | 430 kts | 160° |
| 2026-04-29 16:46 | 47.80620 | 45.27730 | 36172 ft | 430 kts | 160° |
| 2026-04-29 16:47 | 47.75315 | 45.31689 | 36166 ft | 429 kts | 160° |
| 2026-04-29 16:47 | 47.69974 | 45.35656 | 36166 ft | 429 kts | 160° |
| 2026-04-29 16:48 | 47.64635 | 45.39620 | 36172 ft | 429 kts | 160° |
| 2026-04-29 16:48 | 47.59290 | 45.43570 | 36174 ft | 429 kts | 160° |
| 2026-04-29 16:49 | 47.53955 | 45.47514 | 36173 ft | 428 kts | 160° |
| 2026-04-29 16:49 | 47.48628 | 45.51442 | 36170 ft | 428 kts | 160° |
| 2026-04-29 16:50 | 47.43292 | 45.55366 | 36170 ft | 428 kts | 160° |
| 2026-04-29 16:50 | 47.37961 | 45.59268 | 36166 ft | 428 kts | 160° |
| 2026-04-29 16:51 | 47.32631 | 45.63176 | 36167 ft | 428 kts | 160° |
| 2026-04-29 16:51 | 47.27297 | 45.67068 | 36169 ft | 427 kts | 160° |
| 2026-04-29 16:52 | 47.21964 | 45.70941 | 36165 ft | 427 kts | 160° |
| 2026-04-29 16:52 | 47.16634 | 45.74833 | 36168 ft | 427 kts | 160° |
| 2026-04-29 16:53 | 47.11305 | 45.78732 | 36165 ft | 427 kts | 160° |
| 2026-04-29 16:53 | 47.05974 | 45.82616 | 36168 ft | 427 kts | 160° |
| 2026-04-29 16:54 | 47.00648 | 45.86479 | 36171 ft | 427 kts | 160° |
| 2026-04-29 16:54 | 46.95322 | 45.90331 | 36176 ft | 427 kts | 160° |
| 2026-04-29 16:55 | 46.90027 | 45.94152 | 36175 ft | 426 kts | 160° |
| 2026-04-29 16:55 | 46.84704 | 45.97984 | 36165 ft | 426 kts | 160° |
| 2026-04-29 16:56 | 46.79381 | 46.01823 | 36172 ft | 426 kts | 160° |
| 2026-04-29 16:56 | 46.74066 | 46.05644 | 36165 ft | 426 kts | 160° |
| 2026-04-29 16:57 | 46.68751 | 46.09446 | 36165 ft | 425 kts | 160° |
| 2026-04-29 16:57 | 46.63437 | 46.13236 | 36170 ft | 425 kts | 160° |
| 2026-04-29 16:58 | 46.58123 | 46.17026 | 36174 ft | 425 kts | 160° |
| 2026-04-29 16:58 | 46.52815 | 46.20808 | 36168 ft | 425 kts | 160° |
| 2026-04-29 16:59 | 46.47499 | 46.24577 | 36169 ft | 425 kts | 160° |
| 2026-04-29 16:59 | 46.42218 | 46.28312 | 36171 ft | 424 kts | 160° |
| 2026-04-29 17:00 | 46.36901 | 46.32063 | 36168 ft | 425 kts | 160° |
| 2026-04-29 17:00 | 46.31591 | 46.35807 | 36169 ft | 424 kts | 160° |
| 2026-04-29 17:01 | 46.26282 | 46.39547 | 36165 ft | 424 kts | 159° |
| 2026-04-29 17:01 | 46.20970 | 46.43278 | 36168 ft | 424 kts | 159° |
| 2026-04-29 17:02 | 46.15651 | 46.47006 | 36170 ft | 425 kts | 159° |
| 2026-04-29 17:02 | 46.10336 | 46.50733 | 36163 ft | 425 kts | 159° |
| 2026-04-29 17:03 | 46.05018 | 46.54453 | 36162 ft | 425 kts | 159° |
| 2026-04-29 17:03 | 45.99699 | 46.58169 | 36159 ft | 425 kts | 159° |
| 2026-04-29 17:04 | 45.94375 | 46.61870 | 36155 ft | 425 kts | 159° |
| 2026-04-29 17:04 | 45.89053 | 46.65578 | 36156 ft | 425 kts | 159° |
| 2026-04-29 17:05 | 45.83728 | 46.69289 | 36158 ft | 425 kts | 159° |
| 2026-04-29 17:05 | 45.78394 | 46.72986 | 36155 ft | 426 kts | 159° |
| 2026-04-29 17:06 | 45.73061 | 46.76678 | 36155 ft | 426 kts | 159° |
| 2026-04-29 17:06 | 45.67728 | 46.80378 | 36155 ft | 426 kts | 159° |
| 2026-04-29 17:07 | 45.62423 | 46.84035 | 36155 ft | 426 kts | 159° |
| 2026-04-29 17:07 | 45.57072 | 46.87717 | 36151 ft | 427 kts | 159° |
| 2026-04-29 17:08 | 45.51722 | 46.91394 | 36150 ft | 427 kts | 159° |
| 2026-04-29 17:08 | 45.46375 | 46.95071 | 36153 ft | 427 kts | 159° |
| 2026-04-29 17:09 | 45.41010 | 46.98753 | 36154 ft | 428 kts | 159° |
| 2026-04-29 17:09 | 45.35652 | 47.02427 | 36152 ft | 428 kts | 159° |
| 2026-04-29 17:10 | 45.30283 | 47.06096 | 36153 ft | 428 kts | 159° |
| 2026-04-29 17:10 | 45.24906 | 47.09766 | 36151 ft | 429 kts | 159° |
| 2026-04-29 17:11 | 45.19523 | 47.13427 | 36149 ft | 429 kts | 159° |
| 2026-04-29 17:11 | 45.14130 | 47.17081 | 36148 ft | 429 kts | 159° |
| 2026-04-29 17:12 | 45.08739 | 47.20730 | 36149 ft | 430 kts | 159° |
| 2026-04-29 17:12 | 45.04156 | 47.23287 | 36146 ft | 423 kts | 170° |
| 2026-04-29 17:13 | 44.97385 | 47.24762 | 36151 ft | 421 kts | 175° |
| 2026-04-29 17:13 | 44.91616 | 47.25880 | 36151 ft | 421 kts | 175° |
| 2026-04-29 17:14 | 44.85765 | 47.27032 | 36149 ft | 422 kts | 175° |
| 2026-04-29 17:14 | 44.79948 | 47.28168 | 36152 ft | 422 kts | 175° |
| 2026-04-29 17:15 | 44.74161 | 47.29285 | 36155 ft | 423 kts | 175° |
| 2026-04-29 17:15 | 44.68319 | 47.30423 | 36152 ft | 423 kts | 175° |
| 2026-04-29 17:16 | 44.62484 | 47.31559 | 36154 ft | 424 kts | 175° |
| 2026-04-29 17:16 | 44.56639 | 47.32690 | 36156 ft | 424 kts | 175° |
| 2026-04-29 17:17 | 44.50781 | 47.33817 | 36151 ft | 424 kts | 175° |
| 2026-04-29 17:17 | 44.44924 | 47.34898 | 36160 ft | 425 kts | 175° |
| 2026-04-29 17:18 | 44.39067 | 47.35957 | 36157 ft | 425 kts | 175° |
| 2026-04-29 17:18 | 44.33191 | 47.37033 | 36155 ft | 426 kts | 175° |
| 2026-04-29 17:19 | 44.27356 | 47.38114 | 35862 ft | 416 kts | 175° |
| 2026-04-29 17:19 | 44.24509 | 47.38646 | 35527 ft | 408 kts | 175° |
| 2026-04-29 17:19 | 44.21703 | 47.39165 | 35010 ft | 406 kts | 175° |
| 2026-04-29 17:20 | 44.18915 | 47.39674 | 34519 ft | 402 kts | 175° |
| 2026-04-29 17:20 | 44.16149 | 47.40174 | 34036 ft | 399 kts | 175° |
| 2026-04-29 17:20 | 44.13405 | 47.40667 | 33504 ft | 396 kts | 175° |
| 2026-04-29 17:20 | 44.10685 | 47.41159 | 32976 ft | 393 kts | 175° |
| 2026-04-29 17:21 | 44.07982 | 47.41652 | 32462 ft | 390 kts | 175° |
| 2026-04-29 17:21 | 44.05305 | 47.42146 | 31960 ft | 387 kts | 175° |
| 2026-04-29 17:21 | 44.02644 | 47.42636 | 31468 ft | 384 kts | 175° |
| 2026-04-29 17:21 | 44.00034 | 47.43110 | 30988 ft | 381 kts | 175° |
| 2026-04-29 17:22 | 43.97419 | 47.43586 | 30514 ft | 378 kts | 175° |
| 2026-04-29 17:22 | 43.94816 | 47.44060 | 29999 ft | 376 kts | 175° |
| 2026-04-29 17:22 | 43.92230 | 47.44529 | 29460 ft | 373 kts | 175° |
| 2026-04-29 17:22 | 43.89659 | 47.44993 | 28899 ft | 371 kts | 175° |
| 2026-04-29 17:23 | 43.87109 | 47.45453 | 28365 ft | 369 kts | 175° |
| 2026-04-29 17:23 | 43.84567 | 47.45911 | 27842 ft | 367 kts | 175° |
| 2026-04-29 17:23 | 43.82044 | 47.46364 | 27323 ft | 365 kts | 175° |
| 2026-04-29 17:23 | 43.79534 | 47.46814 | 26813 ft | 363 kts | 175° |
| 2026-04-29 17:24 | 43.77038 | 47.47260 | 26313 ft | 361 kts | 175° |
| 2026-04-29 17:24 | 43.74556 | 47.47704 | 25728 ft | 357 kts | 175° |
| 2026-04-29 17:24 | 43.72106 | 47.48145 | 24935 ft | 355 kts | 175° |
| 2026-04-29 17:24 | 43.69666 | 47.48586 | 24152 ft | 353 kts | 174° |
| 2026-04-29 17:25 | 43.67240 | 47.49027 | 23332 ft | 351 kts | 174° |
| 2026-04-29 17:25 | 43.64830 | 47.49464 | 22497 ft | 348 kts | 174° |
| 2026-04-29 17:25 | 43.62439 | 47.49872 | 21709 ft | 344 kts | 177° |
| 2026-04-29 17:25 | 43.60064 | 47.49815 | 20956 ft | 340 kts | 186° |
| 2026-04-29 17:26 | 43.57715 | 47.49559 | 20202 ft | 338 kts | 185° |
| 2026-04-29 17:26 | 43.55381 | 47.49314 | 19491 ft | 335 kts | 185° |
| 2026-04-29 17:26 | 43.53061 | 47.49073 | 18804 ft | 333 kts | 185° |
| 2026-04-29 17:26 | 43.50760 | 47.48836 | 18083 ft | 331 kts | 184° |
| 2026-04-29 17:27 | 43.48471 | 47.48601 | 17352 ft | 328 kts | 185° |
| 2026-04-29 17:27 | 43.46938 | 47.48442 | 16882 ft | 326 kts | 185° |
| 2026-04-29 17:27 | 43.44682 | 47.48208 | 16211 ft | 324 kts | 185° |
| 2026-04-29 17:27 | 43.42445 | 47.47980 | 15577 ft | 321 kts | 185° |
| 2026-04-29 17:28 | 43.40256 | 47.47760 | 14944 ft | 318 kts | 185° |
| 2026-04-29 17:28 | 43.37673 | 47.47497 | 14377 ft | 310 kts | 185° |
| 2026-04-29 17:28 | 43.35589 | 47.47283 | 14260 ft | 291 kts | 185° |
| 2026-04-29 17:28 | 43.33622 | 47.47079 | 14055 ft | 278 kts | 185° |
| 2026-04-29 17:29 | 43.31737 | 47.46883 | 13635 ft | 274 kts | 185° |
| 2026-04-29 17:29 | 43.29848 | 47.46653 | 13144 ft | 270 kts | 191° |
| 2026-04-29 17:29 | 43.28107 | 47.45767 | 12649 ft | 266 kts | 213° |
| 2026-04-29 17:29 | 43.27135 | 47.44711 | 12336 ft | 263 kts | 228° |
| 2026-04-29 17:30 | 43.25929 | 47.41900 | 11679 ft | 258 kts | 256° |
| 2026-04-29 17:30 | 43.25545 | 47.39498 | 11162 ft | 257 kts | 259° |
| 2026-04-29 17:30 | 43.25172 | 47.37103 | 10622 ft | 257 kts | 259° |
| 2026-04-29 17:30 | 43.24652 | 47.34726 | 9900 ft | 265 kts | 245° |
| 2026-04-29 17:31 | 43.23689 | 47.32545 | 9125 ft | 270 kts | 238° |
| 2026-04-29 17:31 | 43.22668 | 47.30366 | 8367 ft | 273 kts | 238° |
| 2026-04-29 17:31 | 43.21394 | 47.28459 | 7630 ft | 275 kts | 212° |
| 2026-04-29 17:31 | 43.19573 | 47.27751 | 6901 ft | 276 kts | 177° |
| 2026-04-29 17:32 | 43.17786 | 47.28548 | 6288 ft | 270 kts | 142° |
| 2026-04-29 17:32 | 43.16444 | 47.30171 | 6112 ft | 248 kts | 136° |
| 2026-04-29 17:32 | 43.15192 | 47.31728 | 5719 ft | 240 kts | 137° |
| 2026-04-29 17:32 | 43.13982 | 47.33217 | 5574 ft | 232 kts | 137° |
| 2026-04-29 17:33 | 43.12768 | 47.34709 | 5454 ft | 237 kts | 137° |
| 2026-04-29 17:33 | 43.11549 | 47.36208 | 5286 ft | 234 kts | 137° |
| 2026-04-29 17:33 | 43.10342 | 47.37695 | 5105 ft | 233 kts | 137° |
| 2026-04-29 17:33 | 43.09138 | 47.39181 | 4928 ft | 232 kts | 137° |
| 2026-04-29 17:34 | 43.07942 | 47.40660 | 4742 ft | 232 kts | 137° |
| 2026-04-29 17:34 | 43.06751 | 47.42137 | 4559 ft | 231 kts | 137° |
| 2026-04-29 17:34 | 43.05558 | 47.43613 | 4383 ft | 231 kts | 137° |
| 2026-04-29 17:34 | 43.04372 | 47.45079 | 4204 ft | 230 kts | 137° |
| 2026-04-29 17:35 | 43.02804 | 47.47015 | 3965 ft | 229 kts | 137° |
| 2026-04-29 17:35 | 43.00559 | 47.49256 | 3621 ft | 249 kts | 150° |
| 2026-04-29 17:35 | 42.99085 | 47.50432 | 3379 ft | 242 kts | 149° |
| 2026-04-29 17:36 | 42.97673 | 47.51620 | 3149 ft | 235 kts | 148° |
| 2026-04-29 17:36 | 42.96310 | 47.52785 | 2939 ft | 228 kts | 148° |
| 2026-04-29 17:36 | 42.94984 | 47.53919 | 2746 ft | 222 kts | 148° |
| 2026-04-29 17:36 | 42.93691 | 47.55022 | 2608 ft | 215 kts | 148° |
| 2026-04-29 17:37 | 42.92442 | 47.56087 | 2399 ft | 208 kts | 148° |
| 2026-04-29 17:37 | 42.91242 | 47.57110 | 2142 ft | 200 kts | 148° |
| 2026-04-29 17:37 | 42.90100 | 47.58083 | 1900 ft | 188 kts | 148° |
| 2026-04-29 17:37 | 42.89028 | 47.58995 | 1636 ft | 175 kts | 148° |
| 2026-04-29 17:38 | 42.88043 | 47.59833 | 1412 ft | 159 kts | 148° |
| 2026-04-29 17:38 | 42.87143 | 47.60599 | 1181 ft | 148 kts | 148° |
| 2026-04-29 17:38 | 42.86286 | 47.61326 | 961 ft | 143 kts | 148° |
| 2026-04-29 17:38 | 42.85454 | 47.62024 | 792 ft | 139 kts | 147° |
| 2026-04-29 17:39 | 42.84639 | 47.62724 | 649 ft | 137 kts | 147° |
| 2026-04-29 17:39 | 42.83830 | 47.63405 | 468 ft | 137 kts | 147° |
| 2026-04-29 17:39 | 42.83030 | 47.64095 | 241 ft | 136 kts | 147° |
| 2026-04-29 17:39 | 42.82231 | 47.64770 | 47 ft | 134 kts | 148° |
| 2026-04-29 17:40 | 42.81540 | 47.65361 | 20 ft | 83 kts | 148° |
| 2026-04-29 17:40 | 42.81258 | 47.65596 | 21 ft | 33 kts | 149° |
| 2026-04-29 17:40 | 42.81064 | 47.65760 | 20 ft | 32 kts | 148° |
| 2026-04-29 17:40 | 42.80877 | 47.65920 | 22 ft | 31 kts | 148° |
| 2026-04-29 17:41 | 42.80738 | 47.66033 | 27 ft | 13 kts | 126° |
| 2026-04-29 17:41 | 42.80706 | 47.66091 | 24 ft | 6 kts | 232° |
| 2026-04-29 17:41 | 42.80734 | 47.66045 | 26 ft | 12 kts | 329° |
| 2026-04-29 17:41 | 42.80811 | 47.65983 | 23 ft | 13 kts | 329° |
| 2026-04-29 17:42 | 42.80893 | 47.65918 | 22 ft | 14 kts | 329° |
| 2026-04-29 17:42 | 42.80976 | 47.65846 | 22 ft | 14 kts | 327° |
| 2026-04-29 17:42 | 42.81074 | 47.65763 | 20 ft | 23 kts | 328° |
| 2026-04-29 17:42 | 42.81251 | 47.65615 | 23 ft | 33 kts | 328° |
| 2026-04-29 17:43 | 42.81442 | 47.65447 | 22 ft | 32 kts | 325° |
| 2026-04-29 17:43 | 42.81626 | 47.65273 | 20 ft | 32 kts | 330° |
| 2026-04-29 17:43 | 42.81814 | 47.65130 | 17 ft | 22 kts | 328° |
| 2026-04-29 17:43 | 42.81863 | 47.65093 | 18 ft | 6 kts | 341° |
| 2026-04-29 17:44 | 42.81920 | 47.65121 | 19 ft | 12 kts | 48° |
| 2026-04-29 17:44 | 42.81958 | 47.65202 | 20 ft | 9 kts | 58° |
| 2026-04-29 17:44 | 42.81989 | 47.65270 | 20 ft | 8 kts | 58° |
| 2026-04-29 17:44 | 42.81998 | 47.65291 | 20 ft | 0 kts | 58° |
| 2026-04-29 17:45 | 42.81999 | 47.65292 | 20 ft | 1 kts | 58° |
| 2026-04-29 17:45 | 42.82003 | 47.65301 | 20 ft | 3 kts | 58° |
| 2026-04-29 17:45 | 42.82049 | 47.65394 | 20 ft | 16 kts | 53° |
| 2026-04-29 17:46 | 42.82070 | 47.65452 | 20 ft | 5 kts | 62° |
| 2026-04-29 17:46 | 42.82084 | 47.65467 | 20 ft | 0 kts | 26° |
| 2026-04-29 17:46 | 42.82089 | 47.65478 | 20 ft | 0 kts | 53° |